Time;durP1;ratioP1;P1;durP2;ratioP2;P2;SDS_P1;SDS_P2;PMS_P1;PMS_P2;Temp;Humidity;BMP_temperature;BMP_pressure;BME280_temperature;BME280_humidity;BME280_pressure;Samples;Min_cycle;Max_cycle;Signal;HPM_P1;HPM_P2
2021/11/06 00:00:29;;;;;;;5.10;2.70;;;9.10;98.30;;;;;;4979273;28;20026;-88
2021/11/06 00:02:55;;;;;;;8.45;2.92;;;9.10;98.30;;;;;;4979184;28;20032;-88
2021/11/06 00:05:21;;;;;;;8.07;3.53;;;9.10;98.30;;;;;;4979177;28;20030;-89
2021/11/06 00:07:47;;;;;;;5.72;3.20;;;9.10;98.30;;;;;;4978935;28;20026;-87
2021/11/06 00:10:13;;;;;;;6.25;3.15;;;9.00;98.30;;;;;;4963089;28;20410;-86
2021/11/06 00:12:40;;;;;;;9.88;3.28;;;9.00;98.30;;;;;;4995984;28;20463;-87
2021/11/06 00:15:07;;;;;;;9.10;3.25;;;9.00;98.30;;;;;;4978761;28;20025;-88
2021/11/06 00:17:34;;;;;;;6.80;2.72;;;9.00;98.40;;;;;;4994906;28;20031;-88
2021/11/06 00:20:00;;;;;;;6.50;3.00;;;9.00;98.40;;;;;;4962955;28;20085;-87
2021/11/06 00:22:26;;;;;;;9.25;3.45;;;9.00;98.40;;;;;;4978707;28;20026;-88
2021/11/06 00:24:52;;;;;;;7.70;3.10;;;8.90;98.40;;;;;;4946391;28;20046;-88
2021/11/06 00:27:18;;;;;;;5.28;2.88;;;8.90;98.40;;;;;;4945517;28;20077;-88
2021/11/06 00:29:43;;;;;;;8.05;3.28;;;8.90;98.50;;;;;;4945802;28;20054;-87
2021/11/06 00:32:09;;;;;;;5.00;2.85;;;8.90;98.50;;;;;;4946553;28;20062;-88
2021/11/06 00:34:35;;;;;;;6.75;3.55;;;8.80;98.50;;;;;;4995755;28;20058;-88
2021/11/06 00:37:01;;;;;;;9.52;3.28;;;8.80;98.50;;;;;;4978435;28;20030;-87
2021/11/06 00:39:26;;;;;;;7.97;3.40;;;8.80;98.50;;;;;;4978677;28;20041;-88
2021/11/06 00:41:52;;;;;;;8.20;3.70;;;8.80;98.50;;;;;;4995630;28;20105;-88
2021/11/06 00:44:18;;;;;;;7.88;3.28;;;8.80;98.50;;;;;;4978346;28;20038;-88
2021/11/06 00:46:45;;;;;;;6.75;3.95;;;8.80;98.50;;;;;;4978546;28;20506;-88
2021/11/06 00:49:10;;;;;;;8.05;4.20;;;8.80;98.60;;;;;;4977503;28;20077;-88
2021/11/06 00:51:36;;;;;;;8.07;4.10;;;8.80;98.60;;;;;;4978212;28;20391;-88
2021/11/06 00:54:02;;;;;;;9.95;4.47;;;8.80;98.60;;;;;;4979896;28;20033;-88
2021/11/06 00:56:28;;;;;;;12.30;4.28;;;8.70;98.50;;;;;;4977190;28;20074;-87
2021/11/06 00:58:53;;;;;;;9.40;5.07;;;8.70;98.50;;;;;;4960000;28;20062;-87
2021/11/06 01:01:19;;;;;;;9.57;4.28;;;8.70;98.60;;;;;;4960967;28;20479;-88
2021/11/06 01:03:45;;;;;;;10.07;5.40;;;8.70;98.70;;;;;;4962177;28;20041;-87
2021/11/06 01:06:10;;;;;;;8.40;4.47;;;8.70;98.60;;;;;;4962222;28;20034;-88
2021/11/06 01:08:37;;;;;;;9.90;4.90;;;8.70;98.60;;;;;;4962310;28;20034;-88
2021/11/06 01:11:03;;;;;;;9.45;5.65;;;8.60;98.70;;;;;;4961985;28;20022;-87
2021/11/06 01:13:28;;;;;;;11.35;5.60;;;8.60;98.60;;;;;;4945933;28;20081;-87
2021/11/06 01:15:54;;;;;;;9.73;5.45;;;8.60;98.60;;;;;;4961782;28;20126;-88
2021/11/06 01:18:20;;;;;;;8.50;5.10;;;8.60;98.70;;;;;;4962045;28;20459;-88
2021/11/06 01:20:45;;;;;;;9.82;5.05;;;8.60;98.70;;;;;;4946014;28;20459;-88
2021/11/06 01:23:11;;;;;;;9.35;4.95;;;8.60;98.70;;;;;;4962212;28;20026;-88
2021/11/06 01:25:37;;;;;;;11.07;5.57;;;8.60;98.70;;;;;;4997697;28;20371;-88
2021/11/06 01:28:04;;;;;;;10.45;6.22;;;8.60;98.70;;;;;;5003594;28;20030;-88
2021/11/06 01:30:30;;;;;;;13.88;5.88;;;8.60;98.70;;;;;;4988515;28;20045;-87
2021/11/06 01:32:55;;;;;;;8.85;5.53;;;8.60;98.70;;;;;;4988349;28;20030;-87
2021/11/06 01:35:21;;;;;;;10.50;5.80;;;8.60;98.70;;;;;;4989372;28;20026;-88
2021/11/06 01:37:47;;;;;;;11.93;5.60;;;8.60;98.70;;;;;;4979186;28;20026;-87
2021/11/06 01:40:17;;;;;;;11.30;5.88;;;8.60;98.60;;;;;;4969149;28;20031;-86
2021/11/06 01:42:44;;;;;;;11.05;5.88;;;8.50;98.60;;;;;;5002103;28;20037;-87
2021/11/06 01:45:15;;;;;;;9.23;5.03;;;8.50;98.70;;;;;;5005174;28;20022;-86
2021/11/06 01:47:40;;;;;;;11.40;5.50;;;8.50;98.70;;;;;;5004413;28;20010;-87
2021/11/06 01:50:07;;;;;;;10.55;5.70;;;8.60;98.70;;;;;;4992223;28;20038;-87
2021/11/06 01:52:33;;;;;;;10.23;5.47;;;8.50;98.70;;;;;;4949605;28;20038;-88
2021/11/06 01:54:59;;;;;;;12.13;6.25;;;8.60;98.80;;;;;;4949327;28;20402;-88
2021/11/06 01:57:27;;;;;;;11.90;5.40;;;8.60;98.70;;;;;;4981325;28;20054;-89
2021/11/06 01:59:53;;;;;;;9.80;5.93;;;8.50;98.60;;;;;;4965548;28;20038;-88
2021/11/06 02:02:19;;;;;;;9.05;5.10;;;8.50;98.70;;;;;;4948908;28;20030;-87
2021/11/06 02:04:45;;;;;;;10.57;5.63;;;8.50;98.70;;;;;;4981371;28;20057;-88
2021/11/06 02:07:11;;;;;;;12.80;6.10;;;8.50;98.70;;;;;;4998408;28;20030;-87
2021/11/06 02:09:37;;;;;;;12.70;5.72;;;8.50;98.70;;;;;;4998624;28;20064;-89
2021/11/06 02:12:03;;;;;;;13.98;6.95;;;8.50;98.70;;;;;;4964894;28;20038;-89
2021/11/06 02:14:30;;;;;;;14.82;6.75;;;8.50;98.70;;;;;;4964564;28;20422;-87
2021/11/06 02:16:56;;;;;;;12.38;5.93;;;8.50;98.70;;;;;;4980853;28;20133;-88
2021/11/06 02:19:30;;;;;;;13.25;6.40;;;8.50;98.70;;;;;;4965091;28;20061;-88
2021/11/06 02:21:58;;;;;;;14.13;7.20;;;8.50;98.70;;;;;;4998165;28;20037;-88
2021/11/06 02:24:25;;;;;;;13.35;6.63;;;8.50;98.80;;;;;;4980881;28;20018;-88
2021/11/06 02:26:51;;;;;;;18.58;7.35;;;8.50;98.80;;;;;;4997346;28;20030;-88
2021/11/06 02:29:17;;;;;;;16.60;7.43;;;8.50;98.80;;;;;;4980562;28;20471;-88
2021/11/06 02:31:43;;;;;;;20.27;7.93;;;8.50;98.80;;;;;;4980914;28;20027;-88
2021/11/06 02:34:10;;;;;;;13.90;7.03;;;8.50;98.70;;;;;;4948890;28;20101;-88
2021/11/06 02:36:37;;;;;;;18.90;7.75;;;8.50;98.80;;;;;;4998057;28;20513;-88
2021/11/06 02:39:05;;;;;;;20.25;8.25;;;8.50;98.80;;;;;;4964692;28;20098;-88
2021/11/06 02:41:30;;;;;;;20.80;8.90;;;8.50;98.80;;;;;;4980744;28;20033;-88
2021/11/06 02:43:59;;;;;;;24.15;9.55;;;8.50;98.70;;;;;;4964307;28;20027;-89
2021/11/06 02:46:25;;;;;;;19.02;9.13;;;8.50;98.60;;;;;;4996873;28;20125;-89
2021/11/06 02:48:51;;;;;;;23.95;10.25;;;8.50;98.60;;;;;;4980322;28;20030;-88
2021/11/06 02:51:17;;;;;;;26.23;9.70;;;8.40;98.60;;;;;;4996468;28;20062;-88
2021/11/06 02:53:43;;;;;;;23.70;9.40;;;8.40;98.70;;;;;;4980386;28;20022;-89
2021/11/06 02:56:08;;;;;;;22.20;9.65;;;8.40;98.70;;;;;;4964046;28;20084;-88
2021/11/06 02:58:34;;;;;;;25.25;10.95;;;8.40;98.70;;;;;;4963852;28;20058;-88
2021/11/06 03:01:01;;;;;;;24.60;10.30;;;8.40;98.70;;;;;;4997588;28;20034;-88
2021/11/06 03:03:27;;;;;;;23.00;9.43;;;8.40;98.80;;;;;;4996431;28;20035;-89
2021/11/06 03:05:53;;;;;;;22.20;9.73;;;8.40;98.80;;;;;;4980147;28;20076;-88
2021/11/06 03:08:19;;;;;;;23.33;9.95;;;8.40;98.80;;;;;;4979937;28;20034;-89
2021/11/06 03:10:45;;;;;;;25.15;9.63;;;8.40;98.80;;;;;;4980133;28;20113;-88
2021/11/06 03:13:11;;;;;;;24.20;10.18;;;8.40;98.70;;;;;;4964501;28;20027;-88
2021/11/06 03:15:37;;;;;;;18.23;8.38;;;8.40;98.80;;;;;;4996274;28;20427;-88
2021/11/06 03:18:03;;;;;;;18.52;8.57;;;8.40;98.80;;;;;;4979931;28;20069;-88
2021/11/06 03:20:29;;;;;;;23.10;9.45;;;8.40;98.90;;;;;;4997208;28;20027;-88
2021/11/06 03:22:58;;;;;;;22.92;9.50;;;8.40;98.80;;;;;;4948095;28;20029;-88
2021/11/06 03:25:27;;;;;;;21.15;8.70;;;8.40;98.80;;;;;;4964330;28;20034;-88
2021/11/06 03:27:53;;;;;;;19.88;9.20;;;8.40;98.80;;;;;;4979686;28;20057;-88
2021/11/06 03:30:19;;;;;;;20.63;9.00;;;8.40;98.80;;;;;;4979093;28;20545;-86
2021/11/06 03:32:45;;;;;;;20.98;9.00;;;8.40;98.80;;;;;;4979813;28;20558;-88
2021/11/06 03:35:11;;;;;;;23.45;10.40;;;8.40;98.80;;;;;;4996641;28;20105;-88
2021/11/06 03:37:39;;;;;;;23.20;9.55;;;8.40;98.80;;;;;;4979524;28;20035;-88
2021/11/06 03:40:06;;;;;;;18.80;8.45;;;8.40;98.70;;;;;;4996832;28;20058;-88
2021/11/06 03:42:32;;;;;;;19.20;8.75;;;8.40;98.70;;;;;;4996977;28;20031;-88
2021/11/06 03:44:58;;;;;;;16.48;8.63;;;8.40;98.80;;;;;;4963218;28;20030;-88
2021/11/06 03:47:24;;;;;;;22.92;9.35;;;8.40;98.80;;;;;;4962492;28;20113;-88
2021/11/06 03:49:49;;;;;;;19.17;8.68;;;8.40;98.70;;;;;;4996362;28;20392;-88
2021/11/06 03:52:15;;;;;;;18.15;8.88;;;8.40;98.80;;;;;;4963115;28;20030;-88
2021/11/06 03:54:42;;;;;;;21.08;9.18;;;8.30;98.80;;;;;;4947106;28;20529;-89
2021/11/06 03:57:08;;;;;;;17.25;8.00;;;8.30;98.80;;;;;;4979128;28;20027;-88
2021/11/06 03:59:34;;;;;;;17.08;8.18;;;8.40;98.90;;;;;;4995393;28;20026;-89
2021/11/06 04:02:00;;;;;;;16.85;8.00;;;8.40;98.90;;;;;;4963112;28;20105;-89
2021/11/06 04:04:26;;;;;;;19.27;8.15;;;8.40;98.90;;;;;;4978937;28;20057;-88
2021/11/06 04:06:52;;;;;;;19.00;9.15;;;8.40;98.90;;;;;;4978449;28;20022;-88
2021/11/06 04:09:17;;;;;;;19.17;8.68;;;8.40;98.90;;;;;;4979059;28;20387;-88
2021/11/06 04:11:43;;;;;;;16.52;7.97;;;8.40;98.90;;;;;;4962657;28;20061;-88
2021/11/06 04:14:09;;;;;;;18.58;8.80;;;8.40;98.90;;;;;;4979005;28;20026;-88
2021/11/06 04:16:34;;;;;;;17.50;8.32;;;8.40;98.80;;;;;;4962530;28;20031;-88
2021/11/06 04:19:00;;;;;;;15.30;8.18;;;8.40;98.90;;;;;;4979093;28;20057;-88
2021/11/06 04:21:25;;;;;;;18.00;8.70;;;8.40;98.90;;;;;;4962735;28;20463;-87
2021/11/06 04:23:51;;;;;;;16.73;7.60;;;8.40;98.90;;;;;;4978815;28;20035;-88
2021/11/06 04:26:17;;;;;;;19.65;9.18;;;8.50;98.90;;;;;;4978843;28;20032;-88
2021/11/06 04:28:42;;;;;;;20.33;9.60;;;8.40;98.80;;;;;;4978593;28;20030;-88
2021/11/06 04:31:08;;;;;;;17.48;8.55;;;8.40;98.70;;;;;;4995828;28;20037;-88
2021/11/06 04:33:34;;;;;;;17.20;8.82;;;8.40;98.80;;;;;;4978473;28;20032;-88
2021/11/06 04:36:00;;;;;;;17.25;8.68;;;8.40;98.80;;;;;;4995790;28;20034;-88
2021/11/06 04:38:25;;;;;;;17.98;9.10;;;8.40;98.80;;;;;;4978468;28;20033;-87
2021/11/06 04:40:51;;;;;;;20.42;8.85;;;8.40;98.80;;;;;;4978808;28;20034;-88
2021/11/06 04:43:17;;;;;;;21.90;10.05;;;8.30;98.50;;;;;;4962555;28;20121;-89
2021/11/06 04:45:42;;;;;;;17.63;8.75;;;8.30;98.60;;;;;;4978369;28;20054;-88
2021/11/06 04:48:08;;;;;;;15.95;8.75;;;8.30;98.60;;;;;;4962095;28;20533;-89
2021/11/06 04:50:34;;;;;;;16.50;9.05;;;8.30;98.90;;;;;;4994623;28;20080;-89
2021/11/06 04:53:00;;;;;;;17.33;8.85;;;8.30;98.70;;;;;;4978036;28;20022;-88
2021/11/06 04:55:25;;;;;;;21.45;9.25;;;8.20;98.70;;;;;;4978378;28;20034;-87
2021/11/06 04:57:51;;;;;;;17.13;8.90;;;8.20;98.70;;;;;;4977253;28;20059;-88
2021/11/06 05:00:17;;;;;;;21.67;8.90;;;8.20;98.80;;;;;;4988698;28;20023;-88
2021/11/06 05:02:43;;;;;;;17.50;8.25;;;8.20;98.80;;;;;;5007051;28;20027;-88
2021/11/06 05:05:09;;;;;;;15.30;8.57;;;8.20;98.90;;;;;;4990580;28;20026;-88
2021/11/06 05:07:36;;;;;;;19.67;9.52;;;8.20;99.00;;;;;;5006118;28;20041;-89
2021/11/06 05:10:03;;;;;;;15.65;9.48;;;8.30;99.00;;;;;;4997100;28;20041;-88
2021/11/06 05:12:28;;;;;;;18.92;9.68;;;8.30;99.00;;;;;;4998014;28;20098;-88
2021/11/06 05:14:54;;;;;;;19.23;9.80;;;8.30;99.10;;;;;;4998059;28;20035;-89
2021/11/06 05:17:20;;;;;;;18.85;9.10;;;8.30;99.00;;;;;;4994313;28;20432;-88
2021/11/06 05:19:46;;;;;;;20.75;9.73;;;8.30;99.00;;;;;;5001394;28;20054;-88
2021/11/06 05:22:13;;;;;;;18.10;9.60;;;8.20;99.10;;;;;;4974835;28;20023;-88
2021/11/06 05:24:39;;;;;;;20.15;9.10;;;8.20;99.10;;;;;;4974768;28;20034;-88
2021/11/06 05:27:06;;;;;;;17.35;8.90;;;8.20;99.20;;;;;;4991013;28;20039;-88
2021/11/06 05:29:32;;;;;;;23.98;10.73;;;8.20;99.20;;;;;;4974702;28;20022;-88
2021/11/06 05:31:58;;;;;;;16.80;10.50;;;8.20;99.60;;;;;;4974060;28;20479;-88
2021/11/06 05:34:24;;;;;;;20.35;10.05;;;8.20;99.40;;;;;;4975638;28;20118;-89
2021/11/06 05:36:50;;;;;;;18.00;9.90;;;8.20;99.50;;;;;;4990729;28;20034;-88
2021/11/06 05:39:15;;;;;;;17.42;9.77;;;8.20;99.70;;;;;;4974520;28;20031;-88
2021/11/06 05:41:41;;;;;;;18.60;10.85;;;8.20;99.70;;;;;;4974516;28;20075;-88
2021/11/06 05:44:07;;;;;;;15.57;9.38;;;8.20;99.80;;;;;;4974353;28;20092;-88
2021/11/06 05:46:33;;;;;;;16.92;10.27;;;8.20;99.90;;;;;;4990069;28;20035;-87
2021/11/06 05:48:58;;;;;;;16.13;9.90;;;8.20;99.90;;;;;;4990430;28;20038;-88
2021/11/06 05:51:24;;;;;;;18.30;10.32;;;8.20;99.90;;;;;;4990493;28;20121;-88
2021/11/06 05:53:50;;;;;;;20.75;10.73;;;8.30;99.90;;;;;;4974103;28;20030;-88
2021/11/06 05:56:16;;;;;;;19.63;11.07;;;8.20;99.90;;;;;;4974306;28;20033;-89
2021/11/06 05:58:42;;;;;;;18.63;10.80;;;8.30;99.90;;;;;;4990410;28;20138;-88
2021/11/06 06:01:08;;;;;;;18.20;10.70;;;8.30;99.90;;;;;;4974406;28;20027;-89
2021/11/06 06:03:34;;;;;;;18.65;11.43;;;8.30;99.90;;;;;;4958240;28;20023;-88
2021/11/06 06:06:00;;;;;;;15.98;10.00;;;8.30;99.90;;;;;;4975296;28;20062;-89
2021/11/06 06:08:26;;;;;;;19.40;10.43;;;8.30;99.90;;;;;;4990273;28;20041;-88
2021/11/06 06:10:52;;;;;;;18.38;11.73;;;8.30;99.90;;;;;;4990264;28;20109;-88
2021/11/06 06:13:18;;;;;;;19.45;11.02;;;8.30;99.90;;;;;;4974252;28;20019;-88
2021/11/06 06:15:43;;;;;;;19.63;10.88;;;8.30;99.90;;;;;;4990322;28;20065;-89
2021/11/06 06:18:09;;;;;;;18.85;11.15;;;8.30;99.90;;;;;;4974462;28;20113;-88
2021/11/06 06:20:35;;;;;;;17.55;9.90;;;8.30;99.90;;;;;;4990436;28;20030;-89
2021/11/06 06:23:00;;;;;;;17.27;11.30;;;8.30;99.90;;;;;;4974231;28;20018;-89
2021/11/06 06:25:26;;;;;;;20.50;11.65;;;8.30;99.90;;;;;;4974402;28;20055;-89
2021/11/06 06:27:52;;;;;;;18.00;10.90;;;8.30;99.90;;;;;;4990436;28;20031;-89
2021/11/06 06:30:18;;;;;;;18.80;11.05;;;8.30;99.90;;;;;;4977467;28;20057;-88
2021/11/06 06:32:45;;;;;;;20.33;11.60;;;8.30;99.90;;;;;;4977590;28;20030;-88
2021/11/06 06:35:12;;;;;;;15.75;10.35;;;8.30;99.90;;;;;;4978778;28;20102;-89
2021/11/06 06:37:38;;;;;;;15.85;10.35;;;8.30;99.90;;;;;;4978462;28;20034;-87
2021/11/06 06:40:05;;;;;;;19.48;11.35;;;8.40;99.90;;;;;;4979151;28;20019;-89
2021/11/06 06:42:31;;;;;;;19.55;11.65;;;8.40;99.90;;;;;;4993679;28;20027;-89
2021/11/06 06:44:57;;;;;;;17.73;10.80;;;8.40;99.90;;;;;;4977719;28;20106;-89
2021/11/06 06:47:23;;;;;;;17.75;10.90;;;8.40;99.90;;;;;;4978386;28;20062;-88
2021/11/06 06:49:49;;;;;;;19.35;12.20;;;8.40;99.90;;;;;;4978677;28;20027;-89
2021/11/06 06:52:16;;;;;;;20.05;11.63;;;8.30;99.90;;;;;;4977494;28;20027;-89
2021/11/06 06:54:42;;;;;;;18.35;11.43;;;8.30;99.90;;;;;;4993954;28;20027;-88
2021/11/06 06:57:08;;;;;;;17.05;10.90;;;8.30;99.90;;;;;;4994678;28;20038;-89
2021/11/06 06:59:34;;;;;;;15.30;10.40;;;8.40;99.90;;;;;;4997683;28;20026;-89
2021/11/06 07:02:05;;;;;;;19.85;11.55;;;8.30;99.90;;;;;;4996661;28;20116;-89
2021/11/06 07:04:31;;;;;;;16.75;10.55;;;8.30;99.90;;;;;;4997592;28;20018;-88
2021/11/06 07:06:58;;;;;;;15.10;10.82;;;8.30;99.90;;;;;;4980301;28;20462;-89
2021/11/06 07:09:24;;;;;;;16.55;10.45;;;8.30;99.90;;;;;;4980161;28;20094;-88
2021/11/06 07:11:50;;;;;;;21.52;11.68;;;8.30;99.90;;;;;;4996539;28;20060;-89
2021/11/06 07:14:17;;;;;;;15.52;10.70;;;8.40;99.90;;;;;;4996516;28;20022;-88
2021/11/06 07:16:43;;;;;;;17.88;10.07;;;8.40;99.90;;;;;;4996556;28;20038;-87
2021/11/06 07:19:10;;;;;;;23.02;11.45;;;8.40;99.90;;;;;;4996085;28;20125;-88
2021/11/06 07:21:35;;;;;;;18.55;10.90;;;8.40;99.90;;;;;;4996370;28;20387;-89
2021/11/06 07:24:01;;;;;;;19.55;10.93;;;8.40;99.90;;;;;;4979879;28;20031;-89
2021/11/06 07:26:27;;;;;;;19.13;12.02;;;8.40;99.90;;;;;;4996170;28;20054;-88
2021/11/06 07:28:53;;;;;;;17.02;11.90;;;8.50;99.90;;;;;;4980080;28;20441;-88
2021/11/06 07:31:19;;;;;;;17.52;11.00;;;8.50;99.90;;;;;;4996216;28;20038;-89
2021/11/06 07:33:48;;;;;;;18.38;11.45;;;8.50;99.90;;;;;;4996019;28;20076;-88
2021/11/06 07:36:14;;;;;;;18.98;11.02;;;8.50;99.90;;;;;;4979901;28;20023;-88
2021/11/06 07:38:40;;;;;;;18.17;10.95;;;8.50;99.90;;;;;;4995947;28;20062;-90
2021/11/06 07:41:06;;;;;;;18.08;11.00;;;8.50;99.90;;;;;;4994881;28;20033;-88
2021/11/06 07:43:34;;;;;;;17.50;11.55;;;8.60;99.90;;;;;;4979195;28;20029;-88
2021/11/06 07:45:59;;;;;;;17.13;10.75;;;8.50;99.90;;;;;;4979188;28;20173;-88
2021/11/06 07:48:25;;;;;;;16.15;11.18;;;8.60;99.90;;;;;;4979376;28;20117;-88
2021/11/06 07:50:51;;;;;;;13.65;10.20;;;8.50;99.90;;;;;;4979296;28;20042;-88
2021/11/06 07:53:16;;;;;;;17.80;10.07;;;8.50;99.90;;;;;;4996103;28;20027;-89
2021/11/06 07:55:42;;;;;;;14.95;9.55;;;8.50;99.90;;;;;;4979336;28;20483;-88
2021/11/06 07:58:09;;;;;;;15.35;10.50;;;8.50;99.90;;;;;;4996694;28;20117;-89
2021/11/06 08:00:36;;;;;;;16.33;11.02;;;8.60;99.90;;;;;;4996769;28;20122;-89
2021/11/06 08:03:02;;;;;;;15.73;10.07;;;8.60;99.90;;;;;;4995433;28;20053;-88
2021/11/06 08:05:27;;;;;;;16.35;10.25;;;8.60;99.90;;;;;;4995297;28;20084;-89
2021/11/06 08:07:53;;;;;;;15.70;9.77;;;8.50;99.90;;;;;;4994954;28;20065;-89
2021/11/06 08:10:19;;;;;;;14.13;9.00;;;8.60;99.90;;;;;;4979587;28;20038;-89
2021/11/06 08:12:45;;;;;;;14.50;10.02;;;8.60;99.90;;;;;;4979175;28;20033;-89
2021/11/06 08:15:13;;;;;;;13.07;9.02;;;8.60;99.90;;;;;;4998354;28;20072;-90
2021/11/06 08:17:38;;;;;;;16.10;9.82;;;8.60;99.90;;;;;;4949182;28;20110;-89
2021/11/06 08:20:06;;;;;;;15.45;9.63;;;8.60;99.90;;;;;;4982112;28;20045;-89
2021/11/06 08:22:34;;;;;;;14.45;9.32;;;8.70;99.90;;;;;;4999142;28;20022;-89
2021/11/06 08:25:00;;;;;;;14.38;9.20;;;8.70;99.90;;;;;;4979013;28;20026;-89
2021/11/06 08:27:25;;;;;;;15.30;9.23;;;8.70;99.90;;;;;;4978607;28;20084;-90
2021/11/06 08:29:51;;;;;;;15.43;9.27;;;8.70;99.90;;;;;;4962690;28;20493;-89
2021/11/06 08:32:17;;;;;;;12.98;9.27;;;8.70;99.90;;;;;;4962727;28;20602;-89
2021/11/06 08:34:43;;;;;;;13.95;9.25;;;8.70;99.90;;;;;;4995592;28;20138;-88
2021/11/06 08:37:09;;;;;;;12.70;8.80;;;8.70;99.90;;;;;;4962537;28;20042;-87
2021/11/06 08:39:35;;;;;;;15.25;9.30;;;8.70;99.90;;;;;;4978348;28;20026;-89
2021/11/06 08:42:00;;;;;;;12.35;8.15;;;8.70;99.90;;;;;;4962494;28;20547;-88
2021/11/06 08:44:26;;;;;;;15.95;9.18;;;8.80;99.90;;;;;;4995536;28;20118;-89
2021/11/06 08:46:54;;;;;;;12.90;9.05;;;8.80;99.90;;;;;;4978750;28;20435;-88
2021/11/06 08:49:20;;;;;;;12.75;8.98;;;8.80;99.90;;;;;;4978544;28;20030;-89
2021/11/06 08:51:47;;;;;;;15.43;8.38;;;8.80;99.90;;;;;;4946160;28;20023;-88
2021/11/06 08:54:18;;;;;;;14.82;8.88;;;8.80;99.90;;;;;;4962580;28;20026;-88
2021/11/06 08:56:45;;;;;;;13.17;9.30;;;8.90;99.90;;;;;;4978232;28;20490;-88
2021/11/06 08:59:11;;;;;;;14.25;9.13;;;8.80;99.90;;;;;;4974686;28;20085;-89
2021/11/06 09:01:37;;;;;;;14.75;9.27;;;8.90;99.90;;;;;;4991042;28;20053;-89
2021/11/06 09:04:03;;;;;;;13.52;8.10;;;8.90;99.90;;;;;;4990840;28;20027;-88
2021/11/06 09:06:33;;;;;;;15.10;8.88;;;8.90;99.90;;;;;;4974472;28;20031;-89
2021/11/06 09:09:07;;;;;;;14.70;8.45;;;8.90;99.90;;;;;;4990405;28;20383;-88
2021/11/06 09:11:33;;;;;;;12.75;8.85;;;9.00;99.90;;;;;;4974399;28;20114;-89
2021/11/06 09:13:59;;;;;;;13.75;7.80;;;9.00;99.90;;;;;;4976289;28;20030;-89
2021/11/06 09:16:25;;;;;;;13.30;7.57;;;9.00;99.90;;;;;;4974464;28;20030;-89
2021/11/06 09:18:52;;;;;;;13.13;8.30;;;9.00;99.90;;;;;;4974952;28;20030;-89
2021/11/06 09:21:22;;;;;;;11.93;7.90;;;9.10;99.90;;;;;;4975354;28;20034;-88
2021/11/06 09:23:50;;;;;;;13.23;7.70;;;9.10;99.90;;;;;;4975949;28;20046;-89
2021/11/06 09:26:17;;;;;;;12.77;7.93;;;9.10;99.90;;;;;;4974843;28;20048;-91
2021/11/06 09:28:43;;;;;;;12.48;7.68;;;9.10;99.90;;;;;;4974492;28;20459;-89
2021/11/06 09:31:10;;;;;;;12.30;8.07;;;9.10;99.90;;;;;;4990461;28;20035;-89
2021/11/06 09:33:41;;;;;;;13.25;8.13;;;9.10;99.90;;;;;;4975558;28;20027;-89
2021/11/06 09:36:09;;;;;;;12.60;7.97;;;9.20;99.90;;;;;;4991085;28;20476;-90
2021/11/06 09:38:35;;;;;;;11.77;7.55;;;9.20;99.90;;;;;;4974568;28;20113;-89
2021/11/06 09:41:06;;;;;;;11.60;7.70;;;9.20;99.90;;;;;;4974543;28;20026;-90
2021/11/06 09:43:33;;;;;;;11.90;8.07;;;9.30;99.90;;;;;;4974640;28;20026;-87
2021/11/06 09:45:59;;;;;;;13.63;8.07;;;9.20;99.90;;;;;;4974490;28;20030;-88
2021/11/06 09:48:29;;;;;;;12.75;7.82;;;9.30;99.90;;;;;;4975381;28;20092;-89
2021/11/06 09:50:57;;;;;;;13.63;8.03;;;9.30;99.90;;;;;;4974092;28;20045;-89
2021/11/06 09:53:37;;;;;;;13.57;7.03;;;9.30;99.90;;;;;;4990383;28;20027;-90
2021/11/06 09:56:04;;;;;;;14.48;7.75;;;9.40;99.90;;;;;;4974296;28;20019;-88
2021/11/06 09:58:30;;;;;;;12.73;7.35;;;9.40;99.90;;;;;;4974028;28;20062;-89
2021/11/06 10:00:56;;;;;;;11.32;6.82;;;9.40;99.90;;;;;;4975392;28;20034;-88
2021/11/06 10:03:22;;;;;;;13.65;7.80;;;9.40;99.90;;;;;;4974152;28;20042;-89
2021/11/06 10:05:56;;;;;;;13.05;7.13;;;9.50;99.90;;;;;;4978276;28;20027;-88
2021/11/06 10:08:36;;;;;;;14.15;7.25;;;9.50;99.90;;;;;;4977909;28;20483;-88
2021/11/06 10:11:11;;;;;;;14.02;7.30;;;9.60;99.90;;;;;;4993962;28;20471;-87
2021/11/06 10:13:56;;;;;;;10.88;6.75;;;9.60;99.80;;;;;;4977491;28;20031;-88
2021/11/06 10:16:42;;;;;;;12.23;6.72;;;9.60;99.80;;;;;;4978779;28;20023;-88
2021/11/06 10:19:11;;;;;;;12.75;6.60;;;9.70;99.70;;;;;;4980635;28;20035;-88
2021/11/06 10:21:39;;;;;;;10.63;6.78;;;9.70;99.70;;;;;;4978784;28;20038;-88
2021/11/06 10:24:05;;;;;;;10.55;6.15;;;9.70;99.70;;;;;;4979049;28;20030;-88
2021/11/06 10:26:31;;;;;;;10.85;6.60;;;9.80;99.60;;;;;;4978908;28;20023;-89
2021/11/06 10:29:13;;;;;;;10.13;6.70;;;9.80;99.50;;;;;;4993976;28;20042;-88
2021/11/06 10:31:54;;;;;;;10.85;6.55;;;9.80;99.20;;;;;;4978903;28;20081;-89
2021/11/06 10:34:25;;;;;;;10.15;5.85;;;9.90;99.10;;;;;;4993903;28;20094;-89
2021/11/06 10:36:57;;;;;;;;;;;9.90;99.30;;;;;;4978589;28;20046;-89
2021/11/06 10:39:23;;;;;;;10.27;5.57;;;9.90;99.20;;;;;;4977686;28;19948;-88
2021/11/06 10:41:49;;;;;;;8.57;5.78;;;10.00;99.20;;;;;;4993691;28;20419;-89
2021/11/06 10:44:19;;;;;;;9.32;5.68;;;10.00;99.20;;;;;;4977978;28;20479;-87
2021/11/06 10:46:53;;;;;;;11.32;5.72;;;10.00;99.20;;;;;;4977462;28;20019;-89
2021/11/06 10:49:38;;;;;;;10.30;5.20;;;10.00;99.00;;;;;;4977554;28;20035;-89
2021/11/06 10:52:09;;;;;;;9.85;5.40;;;10.00;98.90;;;;;;4977280;28;20018;-89
2021/11/06 10:55:05;;;;;;;7.95;5.10;;;10.10;98.90;;;;;;4977644;28;20026;-90
2021/11/06 10:57:32;;;;;;;8.48;5.65;;;10.10;98.90;;;;;;4982306;28;20133;-90
2021/11/06 11:00:06;;;;;;;8.65;5.55;;;10.10;98.60;;;;;;4997951;28;20034;-89
2021/11/06 11:02:32;;;;;;;7.93;5.40;;;10.20;98.50;;;;;;4996458;28;20031;-89
2021/11/06 11:04:58;;;;;;;9.35;5.18;;;10.20;98.70;;;;;;4964647;28;20081;-89
2021/11/06 11:07:23;;;;;;;9.07;4.85;;;10.30;98.80;;;;;;4964143;28;20026;-89
2021/11/06 11:09:49;;;;;;;8.70;4.93;;;10.30;98.70;;;;;;4980702;28;20569;-87
2021/11/06 11:12:19;;;;;;;7.20;4.85;;;10.30;98.70;;;;;;4948203;28;20034;-88
2021/11/06 11:14:53;;;;;;;7.35;5.15;;;10.40;98.70;;;;;;4997220;28;20019;-89
2021/11/06 11:17:19;;;;;;;8.02;4.70;;;10.40;98.40;;;;;;4980229;28;20067;-87
2021/11/06 11:19:47;;;;;;;7.70;4.95;;;10.40;98.30;;;;;;4980493;28;20460;-87
2021/11/06 11:22:29;;;;;;;8.52;5.10;;;10.50;98.30;;;;;;4964125;28;20096;-87
2021/11/06 11:24:55;;;;;;;13.95;6.00;;;10.50;98.20;;;;;;4979700;28;20088;-88
2021/11/06 11:27:22;;;;;;;8.07;5.30;;;10.60;98.20;;;;;;4997155;28;20088;-88
2021/11/06 11:29:48;;;;;;;9.07;5.13;;;10.60;98.20;;;;;;4979740;28;20084;-88
2021/11/06 11:32:16;;;;;;;8.68;4.90;;;10.60;98.30;;;;;;4963792;28;20041;-87
2021/11/06 11:34:43;;;;;;;8.43;5.07;;;10.70;98.10;;;;;;4997156;28;20029;-88
2021/11/06 11:37:09;;;;;;;8.15;4.90;;;10.70;97.90;;;;;;4963849;28;20189;-87
2021/11/06 11:39:35;;;;;;;9.60;5.70;;;10.70;98.00;;;;;;4996001;28;20041;-88
2021/11/06 11:42:13;;;;;;;8.93;5.03;;;10.70;98.00;;;;;;4979796;28;20378;-89
2021/11/06 11:44:48;;;;;;;8.88;5.63;;;10.80;98.00;;;;;;4997572;28;20027;-90
2021/11/06 11:47:38;;;;;;;8.45;4.72;;;10.80;97.70;;;;;;4997008;28;20100;-89
2021/11/06 11:50:10;;;;;;;10.87;5.47;;;10.80;97.60;;;;;;4995972;28;20027;-88
2021/11/06 11:52:38;;;;;;;8.05;4.68;;;10.90;97.70;;;;;;4979797;28;20023;-89
2021/11/06 11:55:12;;;;;;;8.25;5.20;;;10.90;97.80;;;;;;4995865;28;20037;-89
2021/11/06 11:57:43;;;;;;;7.55;5.35;;;10.90;97.80;;;;;;4979258;28;20049;-89
2021/11/06 12:00:18;;;;;;;8.05;4.38;;;10.90;97.80;;;;;;4995826;28;20033;-91
2021/11/06 12:02:58;;;;;;;6.28;4.10;;;11.00;97.80;;;;;;4997069;28;20039;-87
2021/11/06 12:05:24;;;;;;;8.40;5.10;;;11.00;97.80;;;;;;4979559;28;20022;-89
2021/11/06 12:08:12;;;;;;;8.82;4.78;;;11.10;97.80;;;;;;4995449;28;20042;-88
2021/11/06 12:11:04;;;;;;;8.48;4.57;;;11.10;97.70;;;;;;4995837;28;20019;-88
2021/11/06 12:13:32;;;;;;;9.32;4.68;;;11.10;97.50;;;;;;4979415;28;20022;-89
2021/11/06 12:16:00;;;;;;;8.13;4.63;;;11.10;97.50;;;;;;4995797;28;20477;-89
2021/11/06 12:18:35;;;;;;;6.93;4.40;;;11.20;97.30;;;;;;4979275;28;20072;-89
2021/11/06 12:21:21;;;;;;;7.82;4.72;;;11.20;97.20;;;;;;4995596;28;20455;-89
2021/11/06 12:24:00;;;;;;;7.22;4.28;;;11.20;97.30;;;;;;4995219;28;20029;-89
2021/11/06 12:26:29;;;;;;;8.00;4.65;;;11.30;97.00;;;;;;4996687;28;20027;-90
2021/11/06 12:29:06;;;;;;;7.20;4.35;;;11.30;97.10;;;;;;4979087;28;20037;-89
2021/11/06 12:31:38;;;;;;;9.45;4.40;;;11.40;96.80;;;;;;4995592;28;20061;-90
2021/11/06 12:34:05;;;;;;;7.53;4.93;;;11.40;96.70;;;;;;4996644;28;20030;-91
2021/11/06 12:36:33;;;;;;;11.43;5.40;;;11.50;96.80;;;;;;4963380;28;20030;-93
2021/11/06 12:39:01;;;;;;;7.05;3.92;;;11.50;96.60;;;;;;4979153;28;20038;-90
2021/11/06 12:41:30;;;;;;;8.85;4.72;;;11.50;96.70;;;;;;4978915;28;20030;-89
2021/11/06 12:43:57;;;;;;;7.90;4.72;;;11.50;96.50;;;;;;4978974;28;20030;-91
2021/11/06 12:46:27;;;;;;;6.90;4.47;;;11.50;96.40;;;;;;4962697;28;20203;-88